Station Historical Data
 
Daily Summary for February 18, 2019 Units:  English    Metric   Both
« Previous Day
Next Day »
Daily Weekly Monthly Yearly Custom
  Current: High: Low: Average:
Temperature: 36.9 °F TemperatureF °F 32.3 °F 35.8 °F
Dew Point: 26.2 °F DewpointF °F 26.0 °F 32.5 °F
Humidity: 65% Humidity% 64% 88%
Wind Speed: 13.5mph WindSpeedMPHmph 0.0mph 5mph
Wind Gust: 15.0mph WindSpeedGustMPHmph - -
WindNW - - WSW
Pressure: 30.05 in PressureIn in 29.76 in -
Precipitation: 0.05 in      
Historical Graphs
 
 
Tabular Data for February 18, 2019
Time Temperature Dew Point Pressure Wind Wind Speed Wind Gust Humidity Rainfall Rate (Hourly) solar Conditions
TemperatureF °F DewpointF °F PressureIn in Calm     Humidity% HourlyPrecipIn in SolarRadiationWatts/m^2 W/m2 Conditions
00:04 32.3 °F 31.0 °F 29.87 in ESE 2.5 mph 3.5 mph 95% 0.00 in 0.00 W/m2 RA
00:09 32.3 °F 31.0 °F 29.88 in ESE 0.2 mph 2.3 mph 95% 0.00 in 0.00 W/m2 RA
00:14 32.3 °F 31.0 °F 29.89 in Calm     95% 0.00 in 0.00 W/m2 CLR
00:19 32.4 °F 31.4 °F 29.89 in Calm     96% 0.00 in 0.00 W/m2 CLR
00:24 32.4 °F 31.1 °F 29.88 in Calm     95% 0.00 in 0.00 W/m2 CLR
00:29 32.4 °F 31.1 °F 29.88 in ESE 0.5 mph   95% 0.00 in 0.00 W/m2 CLR
00:34 32.4 °F 31.4 °F 29.86 in SE 3.7 mph 3.5 mph 96% 0.00 in 0.00 W/m2 CLR
00:39 32.4 °F 31.4 °F 29.86 in SE 0.9 mph 3.5 mph 96% 0.00 in 0.00 W/m2 CLR
00:44 32.4 °F 31.4 °F 29.87 in ESE 2.2 mph 3.5 mph 96% 0.00 in 0.00 W/m2 CLR
00:49 32.5 °F 31.5 °F 29.88 in ESE 0.1 mph 1.2 mph 96% 0.00 in 0.00 W/m2 CLR
00:54 32.5 °F 31.5 °F 29.89 in North 2.6 mph 3.5 mph 96% 0.00 in 0.00 W/m2 CLR
00:59 32.6 °F 31.6 °F 29.88 in ENE 2.9 mph 3.5 mph 96% 0.00 in 0.00 W/m2 CLR
01:04 32.6 °F 31.6 °F 29.89 in ENE 1.1 mph 2.3 mph 96% 0.00 in 0.00 W/m2 CLR
01:09 32.6 °F 31.6 °F 29.87 in ENE 1.0 mph 3.5 mph 96% 0.00 in 0.00 W/m2 CLR
01:14 32.6 °F 31.6 °F 29.88 in Calm     96% 0.00 in 0.00 W/m2 CLR
01:19 32.5 °F 31.5 °F 29.86 in ENE 0.4 mph 3.5 mph 96% 0.00 in 0.00 W/m2 CLR
01:24 32.5 °F 31.5 °F 29.84 in SE 2.8 mph 6.9 mph 96% 0.00 in 0.00 W/m2 CLR
01:29 32.5 °F 31.5 °F 29.82 in SE 3.5 mph 5.8 mph 96% 0.00 in 0.00 W/m2 CLR
01:34 32.5 °F 31.5 °F 29.82 in SE 2.7 mph 5.8 mph 96% 0.00 in 0.00 W/m2 CLR
01:39 32.6 °F 31.6 °F 29.84 in NNE 2.4 mph 3.5 mph 96% 0.00 in 0.00 W/m2 CLR
01:44 32.6 °F 31.6 °F 29.85 in NNE 1.2 mph 3.5 mph 96% 0.00 in 0.00 W/m2 CLR
01:49 32.7 °F 31.7 °F 29.87 in NNW 2.3 mph 3.5 mph 96% 0.00 in 0.00 W/m2 CLR
01:54 32.8 °F 31.8 °F 29.86 in Calm     96% 0.00 in 0.00 W/m2 CLR
01:59 32.8 °F 31.8 °F 29.87 in NNW 2.2 mph 2.3 mph 96% 0.00 in 0.00 W/m2 CLR
02:04 32.8 °F 31.8 °F 29.87 in ESE 0.4 mph   96% 0.00 in 0.00 W/m2 CLR
02:09 32.7 °F 31.7 °F 29.80 in SE 2.5 mph 4.6 mph 96% 0.00 in 0.00 W/m2 CLR
02:14 32.7 °F 31.7 °F 29.82 in ESE 1.3 mph 4.6 mph 96% 0.00 in 0.00 W/m2 CLR
02:19 32.8 °F 31.8 °F 29.83 in Calm   2.3 mph 96% 0.00 in 0.00 W/m2 CLR
02:24 32.9 °F 31.9 °F 29.82 in ENE 0.1 mph   96% 0.00 in 0.00 W/m2 CLR
02:29 32.9 °F 31.9 °F 29.83 in ENE 1.7 mph 2.3 mph 96% 0.00 in 0.00 W/m2 CLR
02:34 33.0 °F 32.2 °F 29.83 in ENE 1.1 mph 2.3 mph 97% 0.00 in 0.00 W/m2 CLR
02:39 32.9 °F 32.1 °F 29.80 in ESE 4.7 mph 5.8 mph 97% 0.00 in 0.00 W/m2 CLR
02:44 32.9 °F 31.9 °F 29.82 in ESE 1.6 mph 3.5 mph 96% 0.00 in 0.00 W/m2 CLR
02:49 33.0 °F 32.0 °F 29.81 in ESE 2.0 mph 2.3 mph 96% 0.00 in 0.00 W/m2 CLR
02:54 32.9 °F 32.1 °F 29.79 in ESE 1.6 mph 5.8 mph 97% 0.00 in 0.00 W/m2 CLR
02:59 33.0 °F 32.2 °F 29.79 in ESE 2.4 mph 3.5 mph 97% 0.00 in 0.00 W/m2 CLR
03:04 33.0 °F 32.2 °F 29.82 in Calm   2.3 mph 97% 0.00 in 0.00 W/m2 CLR
03:09 33.1 °F 32.3 °F 29.82 in Calm     97% 0.01 in 0.00 W/m2 RA
03:14 33.0 °F 32.2 °F 29.81 in Calm     97% 0.01 in 0.00 W/m2 RA
03:19 33.0 °F 32.2 °F 29.76 in SE 3.4 mph 8.1 mph 97% 0.01 in 0.00 W/m2 CLR
03:24 33.0 °F 32.2 °F 29.80 in Calm     97% 0.01 in 0.00 W/m2 CLR
03:29 33.0 °F 32.2 °F 29.82 in Calm     97% 0.01 in 0.00 W/m2 CLR
03:34 33.1 °F 32.3 °F 29.79 in Calm     97% 0.02 in 0.00 W/m2 RA
03:39 33.0 °F 32.2 °F 29.79 in SE 0.4 mph 3.5 mph 97% 0.02 in 0.00 W/m2 RA
03:44 33.0 °F 32.2 °F 29.79 in SE 1.5 mph 3.5 mph 97% 0.02 in 0.00 W/m2 CLR
03:49 33.0 °F 32.2 °F 29.77 in SE 3.4 mph 4.6 mph 97% 0.02 in 0.00 W/m2 CLR
03:54 33.0 °F 32.2 °F 29.78 in ESE 1.4 mph 3.5 mph 97% 0.02 in 0.00 W/m2 CLR
03:59 33.0 °F 32.2 °F 29.76 in ESE 3.5 mph 3.5 mph 97% 0.02 in 0.00 W/m2 CLR
04:04 33.0 °F 32.2 °F 29.76 in ESE 1.6 mph 3.5 mph 97% 0.02 in 0.00 W/m2 CLR
04:09 33.0 °F 32.2 °F 29.79 in Calm     97% 0.01 in 0.00 W/m2 CLR
04:14 33.2 °F 32.4 °F 29.80 in Calm     97% 0.01 in 0.00 W/m2 CLR
04:19 33.2 °F 32.4 °F 29.78 in Calm     97% 0.01 in 0.00 W/m2 CLR
04:24 33.2 °F 32.4 °F 29.79 in Calm     97% 0.01 in 0.00 W/m2 CLR
04:29 33.2 °F 32.4 °F 29.78 in Calm     97% 0.01 in 0.00 W/m2 CLR
04:34 33.3 °F 32.5 °F 29.79 in Calm     97% 0.00 in 0.00 W/m2 CLR
04:39 33.2 °F 32.4 °F 29.80 in Calm     97% 0.00 in 0.00 W/m2 CLR
04:44 33.2 °F 32.4 °F 29.79 in Calm     97% 0.01 in 0.00 W/m2 RA
04:49 33.1 °F 32.3 °F 29.79 in Calm     97% 0.01 in 0.00 W/m2 RA
04:54 33.2 °F 32.4 °F 29.80 in Calm     97% 0.01 in 0.00 W/m2 CLR
04:59 33.2 °F 32.4 °F 29.79 in Calm     97% 0.01 in 0.00 W/m2 CLR
05:04 33.2 °F 32.4 °F 29.79 in Calm     97% 0.01 in 0.00 W/m2 CLR
05:09 33.2 °F 32.4 °F 29.79 in Calm     97% 0.01 in 0.00 W/m2 CLR
05:14 33.2 °F 32.4 °F 29.78 in Calm     97% 0.01 in 0.00 W/m2 CLR
05:19 33.2 °F 32.4 °F 29.78 in Calm     97% 0.01 in 0.00 W/m2 CLR
05:24 33.2 °F 32.4 °F 29.78 in Calm     97% 0.01 in 0.00 W/m2 CLR
05:29 33.2 °F 32.4 °F 29.78 in Calm     97% 0.02 in 0.00 W/m2 RA
05:34 33.2 °F 32.4 °F 29.78 in Calm     97% 0.02 in 0.00 W/m2 RA
05:39 33.2 °F 32.4 °F 29.77 in Calm     97% 0.02 in 0.00 W/m2 CLR
05:44 33.3 °F 32.5 °F 29.79 in Calm     97% 0.01 in 0.00 W/m2 CLR
05:49 33.3 °F 32.5 °F 29.79 in Calm     97% 0.01 in 0.00 W/m2 CLR
05:54 33.3 °F 32.5 °F 29.79 in Calm     97% 0.01 in 0.00 W/m2 CLR
05:59 33.3 °F 32.5 °F 29.79 in Calm     97% 0.01 in 0.00 W/m2 CLR
06:04 33.2 °F 32.4 °F 29.80 in Calm     97% 0.01 in 0.00 W/m2 CLR
06:09 33.2 °F 32.4 °F 29.79 in Calm     97% 0.01 in 0.00 W/m2 CLR
06:14 33.2 °F 32.4 °F 29.79 in Calm     97% 0.01 in 0.00 W/m2 CLR
06:19 33.2 °F 32.4 °F 29.79 in Calm     97% 0.01 in 0.00 W/m2 CLR
06:24 33.2 °F 32.4 °F 29.79 in Calm     97% 0.01 in 0.00 W/m2 CLR
06:29 33.2 °F 32.4 °F 29.78 in Calm     97% 0.00 in 0.00 W/m2 CLR
06:34 33.2 °F 32.4 °F 29.78 in Calm     97% 0.00 in 0.00 W/m2 CLR
06:39 33.2 °F 32.4 °F 29.78 in Calm     97% 0.00 in 0.00 W/m2 CLR
06:44 33.2 °F 32.4 °F 29.78 in Calm     97% 0.00 in 0.00 W/m2 CLR
06:49 33.2 °F 32.4 °F 29.78 in Calm     97% 0.00 in 0.00 W/m2 CLR
06:54 33.2 °F 32.4 °F 29.79 in Calm     97% 0.00 in 0.00 W/m2 CLR
06:59 33.2 °F 32.4 °F 29.79 in Calm     97% 0.00 in 0.00 W/m2 CLR
07:04 33.2 °F 32.4 °F 29.79 in Calm     97% 0.00 in 5.00 W/m2 CLR
07:09 33.2 °F 32.4 °F 29.80 in Calm     97% 0.00 in 7.00 W/m2 CLR
07:14 33.2 °F 32.4 °F 29.80 in Calm     97% 0.00 in 9.00 W/m2 CLR
07:19 33.3 °F 32.5 °F 29.80 in Calm     97% 0.00 in 11.00 W/m2 CLR
07:24 33.3 °F 32.5 °F 29.79 in Calm     97% 0.00 in 11.00 W/m2 CLR
07:29 33.3 °F 32.5 °F 29.80 in Calm     97% 0.00 in 11.00 W/m2 CLR
07:34 33.3 °F 32.5 °F 29.79 in Calm     97% 0.00 in 16.00 W/m2 CLR
07:39 33.3 °F 32.8 °F 29.80 in Calm     98% 0.00 in 28.00 W/m2 CLR
07:44 33.4 °F 32.9 °F 29.80 in Calm     98% 0.00 in 25.00 W/m2 CLR
07:49 33.5 °F 32.7 °F 29.80 in Calm     97% 0.00 in 32.00 W/m2 CLR
07:54 33.5 °F 32.7 °F 29.80 in Calm     97% 0.00 in 39.00 W/m2 CLR
07:59 33.5 °F 32.7 °F 29.81 in Calm     97% 0.00 in 33.00 W/m2 CLR
08:04 33.6 °F 32.8 °F 29.82 in Calm     97% 0.00 in 42.00 W/m2 CLR
08:09 33.7 °F 32.9 °F 29.82 in Calm     97% 0.00 in 56.00 W/m2 CLR
08:14 33.7 °F 32.9 °F 29.82 in Calm     97% 0.00 in 62.00 W/m2 CLR
08:19 33.7 °F 33.2 °F 29.81 in Calm     98% 0.00 in 84.00 W/m2 CLR
08:24 33.9 °F 33.4 °F 29.82 in SW 0.6 mph 3.5 mph 98% 0.00 in 79.00 W/m2 CLR
08:29 34.1 °F 33.6 °F 29.82 in Calm   1.2 mph 98% 0.00 in 83.00 W/m2 CLR
08:34 34.2 °F 33.7 °F 29.82 in Calm     98% 0.00 in 63.00 W/m2 CLR
08:39 34.3 °F 33.8 °F 29.84 in Calm     98% 0.00 in 58.00 W/m2 CLR
08:44 34.5 °F 34.0 °F 29.84 in Calm     98% 0.00 in 97.00 W/m2 CLR
08:49 34.7 °F 34.2 °F 29.84 in West 3.6 mph 3.5 mph 98% 0.00 in 127.00 W/m2 CLR
08:54 35.0 °F 34.5 °F 29.85 in West 3.6 mph 6.9 mph 98% 0.00 in 151.00 W/m2 CLR
08:59 35.2 °F 34.7 °F 29.84 in West 3.3 mph 3.5 mph 98% 0.00 in 158.00 W/m2 CLR
09:04 35.5 °F 35.0 °F 29.85 in SW 4.9 mph 6.9 mph 98% 0.00 in 190.00 W/m2 CLR
09:09 36.0 °F 35.5 °F 29.85 in SW 4.8 mph 6.9 mph 98% 0.00 in 156.00 W/m2 CLR
09:14 36.1 °F 35.6 °F 29.85 in WSW 4.1 mph 6.9 mph 98% 0.00 in 188.00 W/m2 CLR
09:19 36.2 °F 35.7 °F 29.85 in WSW 3.7 mph 6.9 mph 98% 0.00 in 200.00 W/m2 CLR
09:24 36.4 °F 35.9 °F 29.85 in WSW 6.2 mph 6.9 mph 98% 0.00 in 211.00 W/m2 CLR
09:29 36.4 °F 35.9 °F 29.85 in WSW 5.2 mph 9.2 mph 98% 0.00 in 197.00 W/m2 CLR
09:34 36.6 °F 36.1 °F 29.86 in WSW 6.1 mph 11.5 mph 98% 0.00 in 151.00 W/m2 CLR
09:39 36.7 °F 36.2 °F 29.86 in West 5.0 mph 6.9 mph 98% 0.00 in 169.00 W/m2 CLR
09:44 37.1 °F 36.6 °F 29.86 in West 4.6 mph 5.8 mph 98% 0.00 in 234.00 W/m2 CLR
09:49 37.4 °F 36.9 °F 29.86 in WSW 5.3 mph 9.2 mph 98% 0.00 in 204.00 W/m2 CLR
09:54 37.6 °F 37.1 °F 29.86 in West 2.8 mph 6.9 mph 98% 0.00 in 297.00 W/m2 CLR
09:59 38.0 °F 37.2 °F 29.86 in West 6.0 mph 8.1 mph 97% 0.00 in 306.00 W/m2 CLR
10:04 38.4 °F 37.6 °F 29.86 in WSW 5.2 mph 8.1 mph 97% 0.00 in 318.00 W/m2 CLR
10:09 38.6 °F 37.8 °F 29.86 in West 6.9 mph 11.5 mph 97% 0.00 in 292.00 W/m2 CLR
10:14 38.7 °F 37.9 °F 29.87 in West 8.3 mph 10.4 mph 97% 0.00 in 264.00 W/m2 CLR
10:19 38.6 °F 37.6 °F 29.86 in West 7.3 mph 9.2 mph 96% 0.00 in 309.00 W/m2 CLR
10:24 39.1 °F 38.1 °F 29.87 in WNW 7.2 mph 10.4 mph 96% 0.00 in 359.00 W/m2 CLR
10:29 39.3 °F 38.0 °F 29.87 in West 11.5 mph 11.5 mph 95% 0.00 in 373.00 W/m2 CLR
10:34 39.6 °F 38.0 °F 29.87 in WNW 7.3 mph 8.1 mph 94% 0.00 in 448.00 W/m2 CLR
10:39 39.9 °F 38.0 °F 29.88 in West 6.0 mph 11.5 mph 93% 0.00 in 489.00 W/m2 CLR
10:44 40.4 °F 38.3 °F 29.88 in NW 6.0 mph 9.2 mph 92% 0.00 in 554.00 W/m2 CLR
10:49 40.6 °F 37.9 °F 29.89 in SW 10.0 mph 13.8 mph 90% 0.00 in 629.00 W/m2 CLR
10:54 40.6 °F 37.9 °F 29.89 in West 7.6 mph 11.5 mph 90% 0.00 in 399.00 W/m2 CLR
10:59 40.7 °F 38.0 °F 29.89 in North 8.0 mph 11.5 mph 90% 0.00 in 469.00 W/m2 CLR
11:04 40.8 °F 37.8 °F 29.89 in WNW 9.5 mph 11.5 mph 89% 0.00 in 332.00 W/m2 CLR
11:09 40.6 °F 37.3 °F 29.89 in NW 13.5 mph 19.6 mph 88% 0.00 in 318.00 W/m2 CLR
11:14 41.0 °F 37.1 °F 29.89 in WNW 10.5 mph 12.7 mph 86% 0.00 in 455.00 W/m2 CLR
11:19 41.2 °F 36.7 °F 29.89 in WNW 11.1 mph 17.3 mph 84% 0.00 in 550.00 W/m2 CLR
11:24 41.3 °F 36.8 °F 29.90 in West 7.9 mph 15.0 mph 84% 0.00 in 381.00 W/m2 CLR
11:29 41.6 °F 37.1 °F 29.90 in WNW 10.4 mph 12.7 mph 84% 0.00 in 216.00 W/m2 CLR
11:34 41.2 °F 36.4 °F 29.90 in WNW 7.3 mph 11.5 mph 83% 0.00 in 172.00 W/m2 CLR
11:39 40.9 °F 36.1 °F 29.90 in West 11.6 mph 15.0 mph 83% 0.00 in 195.00 W/m2 CLR
11:44 40.7 °F 35.9 °F 29.89 in West 8.3 mph 15.0 mph 83% 0.00 in 195.00 W/m2 CLR
11:49 40.7 °F 35.6 °F 29.90 in West 8.1 mph 12.7 mph 82% 0.00 in 218.00 W/m2 CLR
11:54 40.7 °F 35.3 °F 29.90 in West 10.4 mph 16.1 mph 81% 0.00 in 223.00 W/m2 CLR
11:59 40.8 °F 35.1 °F 29.91 in WNW 13.7 mph 19.6 mph 80% 0.00 in 325.00 W/m2 CLR
12:04 40.9 °F 34.9 °F 29.91 in West 14.4 mph 18.4 mph 79% 0.00 in 413.00 W/m2 CLR
12:09 41.7 °F 36.3 °F 29.91 in West 14.9 mph 24.2 mph 81% 0.00 in 534.00 W/m2 CLR
12:14 42.5 °F 37.1 °F 29.91 in West 9.0 mph 12.7 mph 81% 0.00 in 534.00 W/m2 CLR
12:19 41.9 °F 35.2 °F 29.91 in WNW 9.9 mph 16.1 mph 77% 0.00 in 325.00 W/m2 CLR
12:24 41.5 °F 35.5 °F 29.91 in WSW 15.1 mph 17.3 mph 79% 0.00 in 343.00 W/m2 CLR
12:29 41.4 °F 35.1 °F 29.92 in NW 19.4 mph 24.2 mph 78% 0.00 in 292.00 W/m2 CLR
12:34 41.1 °F 34.8 °F 29.92 in NW 11.1 mph 16.1 mph 78% 0.00 in 432.00 W/m2 CLR
12:39 41.1 °F 34.4 °F 29.92 in NW 12.2 mph 21.9 mph 77% 0.00 in 272.00 W/m2 CLR
12:44 40.7 °F 34.4 °F 29.92 in NW 12.9 mph 19.6 mph 78% 0.00 in 221.00 W/m2 CLR
12:49 40.6 °F 34.3 °F 29.92 in NW 13.6 mph 19.6 mph 78% 0.00 in 304.00 W/m2 CLR
12:54 41.0 °F 34.7 °F 29.92 in WNW 11.1 mph 12.7 mph 78% 0.00 in 728.00 W/m2 CLR
12:59 41.5 °F 34.5 °F 29.93 in WNW 11.5 mph 19.6 mph 76% 0.00 in 636.00 W/m2 CLR
13:04 41.4 °F 33.4 °F 29.93 in WNW 12.9 mph 17.3 mph 73% 0.00 in 257.00 W/m2 CLR
13:09 40.8 °F 32.5 °F 29.94 in NW 11.0 mph 19.6 mph 72% 0.00 in 260.00 W/m2 CLR
13:14 40.6 °F 32.6 °F 29.94 in West 11.9 mph 13.8 mph 73% 0.00 in 251.00 W/m2 CLR
13:19 41.1 °F 32.8 °F 29.94 in NW 12.9 mph 19.6 mph 72% 0.00 in 1060.00 W/m2 CLR
13:24 42.1 °F 33.4 °F 29.94 in West 11.4 mph 19.6 mph 71% 0.00 in 380.00 W/m2 CLR
13:29 41.8 °F 32.7 °F 29.95 in West 12.5 mph 19.6 mph 70% 0.00 in 417.00 W/m2 CLR
13:34 41.8 °F 32.4 °F 29.95 in WNW 13.1 mph 17.3 mph 69% 0.00 in 494.00 W/m2 CLR
13:39 41.6 °F 32.5 °F 29.95 in West 12.3 mph 16.1 mph 70% 0.00 in 276.00 W/m2 CLR
13:44 40.9 °F 30.8 °F 29.96 in NW 12.9 mph 13.8 mph 67% 0.00 in 253.00 W/m2 CLR
13:49 40.2 °F 30.1 °F 29.96 in NW 8.1 mph 12.7 mph 67% 0.00 in 299.00 W/m2 CLR
13:54 39.9 °F 29.8 °F 29.96 in NW 12.4 mph 18.4 mph 67% 0.00 in 188.00 W/m2 CLR
13:59 39.8 °F 30.8 °F 29.97 in WNW 10.0 mph 15.0 mph 70% 0.00 in 251.00 W/m2 CLR
14:04 39.9 °F 30.9 °F 29.97 in WNW 10.5 mph 15.0 mph 70% 0.00 in 257.00 W/m2 CLR
14:09 39.8 °F 30.1 °F 29.97 in West 8.3 mph 16.1 mph 68% 0.00 in 236.00 W/m2 CLR
14:14 39.9 °F 30.5 °F 29.97 in WNW 6.1 mph 10.4 mph 69% 0.00 in 192.00 W/m2 CLR
14:19 39.8 °F 30.1 °F 29.98 in WNW 10.4 mph 12.7 mph 68% 0.00 in 155.00 W/m2 CLR
14:24 39.6 °F 29.5 °F 29.98 in WNW 12.1 mph 13.8 mph 67% 0.00 in 239.00 W/m2 CLR
14:29 39.5 °F 29.4 °F 29.98 in West 15.7 mph 22.0 mph 67% 0.00 in 258.00 W/m2 CLR
14:34 39.5 °F 29.4 °F 29.98 in WNW 12.9 mph 13.8 mph 67% 0.00 in 243.00 W/m2 CLR
14:39 39.3 °F 29.3 °F 29.98 in West 11.1 mph 19.6 mph 67% 0.00 in 142.00 W/m2 CLR
14:44 39.1 °F 29.4 °F 29.99 in WNW 12.7 mph 18.4 mph 68% 0.00 in 160.00 W/m2 CLR
14:49 38.9 °F 28.1 °F 29.99 in NNW 15.6 mph 24.2 mph 65% 0.00 in 141.00 W/m2 CLR
14:54 38.8 °F 28.4 °F 30.00 in NW 9.8 mph 11.5 mph 66% 0.00 in 135.00 W/m2 CLR
14:59 38.6 °F 28.2 °F 30.00 in WNW 15.8 mph 19.6 mph 66% 0.00 in 127.00 W/m2 CLR
15:04 38.5 °F 28.1 °F 30.00 in NW 12.7 mph 18.4 mph 66% 0.00 in 171.00 W/m2 CLR
15:09 38.4 °F 28.4 °F 30.01 in WNW 9.3 mph 15.0 mph 67% 0.00 in 141.00 W/m2 CLR
15:14 38.3 °F 28.3 °F 30.01 in West 7.7 mph 12.7 mph 67% 0.00 in 132.00 W/m2 CLR
15:19 38.2 °F 28.2 °F 30.01 in WNW 9.6 mph 17.3 mph 67% 0.00 in 121.00 W/m2 CLR
15:24 38.1 °F 27.7 °F 30.01 in WNW 12.4 mph 23.0 mph 66% 0.00 in 156.00 W/m2 CLR
15:29 38.0 °F 27.6 °F 30.02 in West 17.8 mph 29.9 mph 66% 0.01 in 181.00 W/m2 RA
15:34 38.0 °F 27.3 °F 30.02 in WNW 13.3 mph 19.6 mph 65% 0.01 in 151.00 W/m2 RA
15:39 37.9 °F 27.2 °F 30.03 in NW 12.2 mph 16.1 mph 65% 0.01 in 109.00 W/m2 CLR
15:44 37.6 °F 26.9 °F 30.03 in West 11.9 mph 16.1 mph 65% 0.01 in 72.00 W/m2 CLR
15:49 37.4 °F 26.7 °F 30.03 in NW 18.9 mph 18.4 mph 65% 0.01 in 74.00 W/m2 CLR
15:54 37.3 °F 26.6 °F 30.04 in West 15.3 mph 18.4 mph 65% 0.01 in 95.00 W/m2 CLR
15:59 37.1 °F 26.0 °F 30.04 in West 17.4 mph 25.3 mph 64% 0.01 in 97.00 W/m2 CLR
16:04 37.0 °F 26.3 °F 30.04 in NW 12.8 mph 26.5 mph 65% 0.01 in 165.00 W/m2 CLR
16:09 37.0 °F 26.3 °F 30.05 in NW 10.9 mph 24.2 mph 65% 0.01 in 137.00 W/m2 CLR
16:14 36.9 °F 26.2 °F 30.05 in NW 13.5 mph 15.0 mph 65% 0.01 in 121.00 W/m2 CLR
East Vincent, PA, USA
Compliments of Weather Underground - 2.75 mb